Latest Weather Observations for Loxton

IDS60801

Issued at 12:05 pm CST Thursday 2 October 2014 (issued every 30 minutes, with the page automatically refreshed every 10 minutes)

About weather observations | Map of weather stations | Latest weather observations for SA | Other Formats
Station Details ID: 024024 Name: LOXTON RESEARCH CENTRE Lat: -34.44 Lon: 140.60 Height: 30.1 m
Data from the previous 72 hours. | See also: Recent months at Loxton
Date/Time
CST
Temp
°C
App
Temp
°C
Dew
Point
Rel
Hum
%
Delta-T
°C
Wind Press
QNH
hPa
Press
MSL
hPa
Rain
since 9 am
mm
Dir
 
Spd
km/h
Gust
km/h
Spd
kts
Gust
kts
02/12:00pm 17.8 14.4 3.9 39 6.5 SSW 11 17 6 9 1026.5 1026.5 0.0
02/11:30am 16.6 12.5 4.1 43 5.8 SSW 15 22 8 12 1027.1 1027.1 0.0
02/11:00am 16.8 14.2 4.4 43 5.8 S 7 20 4 11 1027.3 1027.3 0.0
02/10:30am 16.0 13.5 4.9 47 5.2 W 7 13 4 7 1027.8 1027.8 0.0
02/10:00am 15.4 11.8 4.9 49 4.9 SSE 13 20 7 11 1028.1 1028.1 0.0
02/09:30am 14.7 11.9 5.1 52 4.5 SW 9 13 5 7 1028.4 1028.4 0.0
02/09:00am 13.6 10.0 4.9 55 4.0 S 13 19 7 10 1028.8 1028.8 0.0
02/08:30am 13.3 10.1 5.1 57 3.8 SSE 11 20 6 11 1028.7 1028.7 0.0
02/08:00am 12.3 10.3 6.1 66 2.9 SE 6 11 3 6 1028.6 1028.6 0.0
02/07:30am 10.1 8.0 6.0 76 1.9 SSE 6 9 3 5 1028.5 1028.5 0.0
02/07:00am 7.4 6.3 5.1 85 1.0 CALM 0 0 0 0 1028.3 1028.3 0.0
02/06:30am 5.5 4.1 3.8 89 0.7 CALM 0 0 0 0 1028.1 1028.1 0.0
02/06:00am 4.2 2.6 2.7 90 0.6 CALM 0 6 0 3 1027.9 1027.9 0.0
02/05:30am 4.3 2.8 3.1 92 0.5 CALM 0 9 0 5 1027.5 1027.5 0.0
02/05:00am 4.7 2.2 3.5 92 0.5 S 6 7 3 4 1027.3 1027.3 0.0
02/04:30am 5.1 2.4 3.7 91 0.6 SSW 7 9 4 5 1027.0 1027.0 0.0
02/04:00am 5.4 4.1 4.0 91 0.6 CALM 0 0 0 0 1026.9 1026.9 0.0
02/03:30am 6.6 5.1 4.8 88 0.8 SW 2 6 1 3 1026.9 1026.9 0.0
02/03:00am 6.7 4.4 4.6 86 0.9 SSW 6 7 3 4 1026.8 1026.8 0.0
02/02:30am 7.0 4.4 4.4 83 1.1 S 7 9 4 5 1026.9 1026.9 0.0
02/02:00am 7.4 4.5 4.4 81 1.3 S 9 11 5 6 1027.1 1027.1 0.0
02/01:30am 7.7 4.8 4.5 80 1.4 S 9 11 5 6 1027.3 1027.3 0.0
02/01:00am 8.2 5.3 4.5 77 1.6 S 9 13 5 7 1027.5 1027.5 0.0
02/12:30am 8.7 5.8 4.6 75 1.8 S 9 15 5 8 1027.6 1027.6 0.0
02/12:00am 9.2 6.3 4.4 72 2.1 SSW 9 13 5 7 1027.7 1027.7 0.0
 
Date/Time
CST
Temp
°C
App
Temp
°C
Dew
Point
Rel
Hum
%
Delta-T
°C
Wind Press
QNH
hPa
Press
MSL
hPa
Rain
since 9 am
mm
Dir
 
Spd
km/h
Gust
km/h
Spd
kts
Gust
kts
01/11:30pm 9.8 6.1 4.4 69 2.4 S 13 17 7 9 1027.9 1027.9 0.0
01/11:00pm 10.5 6.4 4.4 66 2.7 S 15 20 8 11 1027.9 1027.9 0.0
01/10:30pm 11.2 7.1 4.5 63 3.0 SSW 15 24 8 13 1027.9 1027.9 0.0
01/10:00pm 11.4 7.3 4.2 61 3.2 SSW 15 22 8 12 1027.9 1027.9 0.0
01/09:30pm 11.6 7.4 3.7 58 3.5 SSW 15 20 8 11 1027.9 1027.9 0.0
01/09:00pm 12.4 8.1 3.0 52 4.1 SSW 15 22 8 12 1027.6 1027.6 0.0
01/08:30pm 13.0 9.5 3.3 51 4.3 SSW 11 15 6 8 1027.3 1027.3 0.0
01/08:00pm 13.7 10.6 3.7 51 4.5 SSW 9 15 5 8 1026.9 1026.9 0.0
01/07:30pm 14.2 11.1 3.5 48 4.8 S 9 11 5 6 1026.6 1026.6 0.0
01/07:00pm 14.8 11.7 3.5 46 5.1 S 9 13 5 7 1026.3 1026.3 0.0
01/06:30pm 15.9 12.7 3.1 42 5.8 S 9 11 5 6 1026.1 1026.1 0.0
01/06:00pm 17.2 13.2 2.6 37 6.6 S 13 19 7 10 1025.7 1025.7 0.0
01/05:30pm 18.3 14.3 2.8 35 7.1 S 13 20 7 11 1025.5 1025.5 0.0
01/05:00pm 19.1 14.2 1.9 31 7.8 S 17 24 9 13 1025.3 1025.3 0.0
01/04:30pm 19.3 13.9 1.2 30 8.1 S 19 24 10 13 1025.2 1025.2 0.0
01/04:00pm 19.4 14.4 1.1 29 8.2 SSW 17 24 9 13 1025.3 1025.3 0.0
01/03:30pm 19.2 13.5 0.3 28 8.3 SSW 20 30 11 16 1025.2 1025.2 0.0
01/03:00pm 19.1 13.4 0.5 28 8.2 SSW 20 28 11 15 1025.3 1025.3 0.0
01/02:30pm 19.3 13.7 -0.2 27 8.5 SW 19 26 10 14 1025.4 1025.4 0.0
01/02:00pm 18.9 13.1 -0.3 27 8.4 SW 20 32 11 17 1025.8 1025.8 0.0
01/01:30pm 18.3 13.1 0.1 29 7.9 SSW 17 24 9 13 1026.2 1026.2 0.0
01/01:00pm 17.6 12.1 0.3 31 7.5 SSW 19 28 10 15 1026.8 1026.8 0.0
01/12:30pm 17.5 12.8 0.8 32 7.3 S 15 24 8 13 1026.9 1026.9 0.0
01/12:00pm 17.3 12.9 0.4 32 7.3 S 13 20 7 11 1027.2 1027.2 0.0
01/11:30am 16.6 11.6 1.6 36 6.6 S 17 30 9 16 1027.5 1027.5 0.0
01/11:00am 16.6 10.9 0.6 34 7.0 SSW 20 24 11 13 1027.6 1027.6 0.0
01/10:30am 15.3 10.4 1.8 40 5.9 S 17 22 9 12 1027.8 1027.8 0.0
01/10:00am 15.1 10.6 2.1 41 5.8 S 15 24 8 13 1028.0 1028.0 0.0
01/09:30am 14.4 9.6 2.6 45 5.2 S 17 24 9 13 1028.1 1028.1 0.0
01/09:00am 13.5 9.2 3.4 50 4.5 S 15 24 8 13 1027.9 1027.9 0.0
01/08:30am 13.2 9.2 4.7 56 3.9 S 15 20 8 11 1027.9 1027.9 0.0
01/08:00am 11.8 9.1 5.8 66 2.8 SW 9 13 5 7 1027.5 1027.5 0.0
01/07:30am 10.7 8.1 6.2 74 2.1 SSW 9 11 5 6 1027.1 1027.1 0.0
01/07:00am 9.6 7.6 6.3 80 1.5 W 6 11 3 6 1026.8 1026.8 0.0
01/06:30am 8.5 5.8 5.8 83 1.2 WSW 9 11 5 6 1026.3 1026.3 0.0
01/06:00am 8.0 5.9 6.5 90 0.7 W 7 11 4 6 1025.9 1025.9 0.0
01/05:30am 7.6 5.0 6.0 90 0.7 WSW 9 13 5 7 1025.3 1025.3 0.0
01/05:00am 7.6 5.7 6.5 93 0.5 WSW 6 9 3 5 1024.8 1024.8 0.0
01/04:30am 8.4 5.9 6.4 87 0.9 WSW 9 11 5 6 1024.3 1024.3 0.0
01/04:00am 8.7 6.3 7.0 89 0.8 WSW 9 11 5 6 1023.8 1023.8 0.0
01/03:30am 8.9 6.6 7.4 90 0.7 WSW 9 13 5 7 1023.6 1023.6 0.0
01/03:00am 9.5 6.4 7.4 87 1.0 SW 13 19 7 10 1023.3 1023.3 0.0
01/02:30am 9.8 6.7 7.3 84 1.2 WSW 13 17 7 9 1023.1 1023.1 0.0
01/02:00am 9.9 7.2 7.4 84 1.2 WSW 11 17 6 9 1022.9 1022.9 0.0
01/01:30am 10.2 7.4 7.0 80 1.5 WSW 11 15 6 8 1022.9 1022.9 0.0
01/01:00am 10.4 8.0 7.2 80 1.5 WSW 9 15 5 8 1022.7 1022.7 0.0
01/12:30am 10.1 7.7 6.9 80 1.5 WSW 9 15 5 8 1022.5 1022.5 0.0
01/12:00am 10.3 7.1 6.9 79 1.6 SW 13 17 7 9 1022.3 1022.3 0.0
 
Date/Time
CST
Temp
°C
App
Temp
°C
Dew
Point
Rel
Hum
%
Delta-T
°C
Wind Press
QNH
hPa
Press
MSL
hPa
Rain
since 9 am
mm
Dir
 
Spd
km/h
Gust
km/h
Spd
kts
Gust
kts
30/11:30pm 10.9 7.3 6.6 75 2.0 SW 15 20 8 11 1021.9 1021.9 0.0
30/11:00pm 11.7 7.6 6.4 70 2.5 SW 17 22 9 12 1021.7 1021.7 0.0
30/10:30pm 12.1 8.0 6.1 67 2.8 SW 17 24 9 13 1021.5 1021.5 0.0
30/10:00pm 11.7 8.7 5.9 67 2.7 SW 11 15 6 8 1021.4 1021.4 0.0
30/09:30pm 11.9 8.5 6.1 67 2.7 SW 13 17 7 9 1021.0 1021.0 0.0
30/09:00pm 12.5 9.1 6.1 65 3.0 SW 13 19 7 10 1020.6 1020.6 0.0
30/08:30pm 12.9 9.4 5.6 61 3.4 SW 13 19 7 10 1020.2 1020.2 0.0
30/08:00pm 13.7 9.5 5.9 59 3.7 SW 17 24 9 13 1019.7 1019.7 0.0
30/07:30pm 14.1 10.7 7.6 65 3.2 SW 15 20 8 11 1019.3 1019.3 0.0
30/07:00pm 14.7 11.3 9.2 69 2.8 SW 17 26 9 14 1018.5 1018.5 0.0
30/06:30pm 15.0 11.3 9.4 69 2.9 SSW 19 30 10 16 1017.8 1017.8 0.0
30/06:00pm 15.1 10.5 9.7 70 2.8 SSW 24 39 13 21 1017.2 1017.2 0.0
30/05:30pm 15.7 10.5 10.4 71 2.8 SSW 28 43 15 23 1016.7 1016.7 0.0
30/05:01pm 17.1 11.0 10.5 65 3.5 SW 33 52 18 28 1016.1 1016.1 0.0
30/05:00pm 17.2 10.7 10.4 64 3.6 SW 35 52 19 28 1016.1 1016.1 0.0
30/04:47pm 18.7 11.7 9.9 56 4.7 SW 37 56 20 30 1015.5 1015.5 0.0
30/04:30pm 20.2 14.5 9.7 51 5.6 SW 30 43 16 23 1015.0 1015.0 0.0
30/04:00pm 22.4 15.1 4.5 31 8.8 W 32 50 17 27 1014.1 1014.0 0.0
30/03:39pm 22.9 16.0 4.7 30 9.0 W 30 48 16 26 1014.1 1014.0 0.0
30/03:30pm 22.7 15.6 5.6 33 8.6 W 32 48 17 26 1014.0 1013.9 0.0
30/03:04pm 22.6 14.8 5.1 32 8.7 W 35 54 19 29 1013.8 1013.7 0.0
30/03:00pm 22.8 14.6 4.6 30 9.0 W 37 54 20 29 1013.7 1013.6 0.0
30/02:30pm 24.2 16.7 4.5 28 9.8 W 33 54 18 29 1013.3 1013.2 0.0
30/02:00pm 24.6 15.3 0.8 21 11.1 W 39 65 21 35 1012.9 1012.8 0.0
30/01:30pm 24.7 15.5 1.0 21 11.1 W 39 65 21 35 1012.9 1012.8 0.0
30/01:00pm 25.6 17.0 2.5 22 11.2 W 37 57 20 31 1012.4 1012.4 0.0
30/12:31pm 25.6 17.1 3.2 23 11.0 W 37 56 20 30 1012.3 1012.3 0.0
30/12:30pm 25.6 16.7 3.2 23 11.0 W 39 56 21 30 1012.2 1012.2 0.0
30/12:00pm 25.9 16.2 2.7 22 11.3 WNW 43 65 23 35 1011.9 1011.9 0.0
30/11:30am 25.8 17.3 3.2 23 11.1 WNW 37 63 20 34 1012.1 1012.1 0.0
30/11:00am 25.5 16.2 3.0 23 11.0 WNW 41 59 22 32 1012.8 1012.7 0.0
30/10:30am 24.1 16.4 2.4 24 10.4 WNW 32 54 17 29 1012.9 1012.8 0.0
30/10:05am 23.8 16.9 2.5 25 10.2 WNW 28 52 15 28 1013.3 1013.2 0.0
30/10:00am 24.1 18.0 3.0 25 10.2 NW 24 37 13 20 1013.4 1013.3 0.0
30/09:30am 23.0 17.1 3.7 28 9.4 NW 24 37 13 20 1013.5 1013.4 0.0
30/09:00am 21.2 17.1 6.1 37 7.6 NNW 17 33 9 18 1013.6 1013.5 0.0
30/08:30am 19.3 15.0 7.0 44 6.2 NNW 19 26 10 14 1013.9 1013.8 0.0
30/08:00am 16.9 14.0 8.0 55 4.5 NNW 13 19 7 10 1014.2 1014.1 0.0
30/07:30am 14.4 11.9 8.2 66 3.1 NNW 11 17 6 9 1013.9 1013.8 0.0
30/07:00am 12.2 9.8 8.8 80 1.7 NW 11 15 6 8 1013.8 1013.7 0.0
30/06:30am 11.0 9.0 8.6 85 1.2 NW 9 13 5 7 1013.6 1013.5 0.0
30/06:00am 8.2 6.1 6.7 90 0.7 N 7 9 4 5 1013.3 1013.2 0.0
30/05:30am 9.5 7.7 7.8 89 0.8 NNW 7 9 4 5 1013.1 1013.0 0.0
30/05:00am 9.7 7.5 7.8 88 0.9 NW 9 11 5 6 1012.9 1012.8 0.0
30/04:30am 10.5 8.0 8.0 84 1.2 NNW 11 13 6 7 1012.8 1012.7 0.0
30/04:00am 10.9 8.4 8.0 82 1.4 NW 11 15 6 8 1012.6 1012.6 0.0
30/03:30am 8.4 7.7 6.9 90 0.7 CALM 0 0 0 0 1012.8 1012.7 0.0
30/03:00am 8.7 7.6 6.8 88 0.9 NW 2 6 1 3 1012.9 1012.8 0.0
30/02:30am 10.3 8.7 8.0 86 1.1 WNW 6 6 3 3 1013.2 1013.1 0.0
30/02:00am 11.7 9.9 7.8 77 1.9 WNW 7 11 4 6 1013.6 1013.5 0.0
30/01:30am 11.5 9.9 8.2 80 1.6 W 6 9 3 5 1013.8 1013.7 0.0
30/01:00am 12.8 10.7 8.1 73 2.3 W 9 11 5 6 1014.2 1014.1 0.0
30/12:30am 13.1 10.5 7.8 70 2.6 W 11 17 6 9 1014.4 1014.4 0.0
30/12:00am 14.2 12.0 7.7 65 3.2 WNW 9 13 5 7 1014.4 1014.4 0.0
 
Date/Time
CST
Temp
°C
App
Temp
°C
Dew
Point
Rel
Hum
%
Delta-T
°C
Wind Press
QNH
hPa
Press
MSL
hPa
Rain
since 9 am
mm
Dir
 
Spd
km/h
Gust
km/h
Spd
kts
Gust
kts
29/11:30pm 13.9 11.7 7.8 66 3.0 WNW 9 11 5 6 1014.4 1014.4 0.0
29/11:00pm 13.1 11.5 8.7 74 2.2 W 7 11 4 6 1014.5 1014.5 0.0
29/10:30pm 12.9 12.6 8.7 75 2.1 CALM 0 0 0 0 1014.4 1014.4 0.0
29/10:00pm 15.6 14.9 8.7 63 3.5 WSW 2 7 1 4 1014.3 1014.3 0.0
29/09:30pm 17.6 15.0 7.7 52 5.0 SW 11 17 6 9 1014.1 1014.0 0.0
29/09:00pm 18.8 15.3 7.1 46 5.9 WSW 15 24 8 13 1014.1 1014.0 0.0
29/08:30pm 19.0 16.1 6.3 43 6.3 W 11 17 6 9 1013.9 1013.8 0.0
29/08:00pm 15.1 14.4 8.4 64 3.4 WSW 2 19 1 10 1013.6 1013.5 0.0
29/07:30pm 16.0 16.0 9.9 67 3.2 CALM 0 0 0 0 1013.2 1013.1 0.0
29/07:00pm 17.0 16.9 9.5 61 3.9 CALM 0 0 0 0 1013.0 1012.9 0.0
29/06:30pm 20.0 18.5 8.5 47 6.0 W 6 9 3 5 1012.6 1012.6 0.0
29/06:00pm 22.4 19.3 5.4 33 8.5 W 11 15 6 8 1012.4 1012.4 0.0
29/05:30pm 23.5 19.9 4.9 30 9.3 WNW 13 19 7 10 1012.3 1012.3 0.0
29/05:00pm 24.1 20.1 4.7 28 9.7 WNW 15 22 8 12 1012.2 1012.2 0.0
29/04:30pm 24.4 19.5 4.3 27 10.0 WNW 19 28 10 15 1012.1 1012.1 0.0
29/04:00pm 24.5 20.4 4.4 27 10.0 W 15 26 8 14 1012.1 1012.1 0.0
29/03:30pm 24.7 20.3 4.5 27 10.1 WNW 17 24 9 13 1012.2 1012.2 0.0
29/03:00pm 25.1 20.2 4.2 26 10.4 WNW 19 30 10 16 1012.3 1012.3 0.0
29/02:30pm 24.8 19.8 4.7 27 10.1 NW 20 35 11 19 1012.6 1012.6 0.0
29/02:00pm 23.9 19.7 4.0 27 9.8 NNW 15 26 8 14 1013.2 1013.1 0.0
29/01:30pm 23.5 19.1 4.9 30 9.3 NNW 17 28 9 15 1013.7 1013.6 0.0
29/01:00pm 22.8 18.6 5.5 32 8.7 NNW 17 30 9 16 1014.2 1014.1 0.0
29/12:30pm 22.5 18.4 6.1 34 8.3 NW 17 32 9 17 1014.6 1014.6 0.0

Other Formats:

Comma delimited format used in spreadsheet applications
http://www.bom.gov.au/fwo/IDS60801/IDS60801.94682.axf

JavaScript Object Notation format (JSON) in row-major order
http://www.bom.gov.au/fwo/IDS60801/IDS60801.94682.json